sensor_id;sensor_type;location;lat;lon;timestamp;pressure;altitude;pressure_sealevel;temperature;humidity
56737;BME280;42618;51.226;4.910;2023-05-09T00:00:45;49727.00;;;-146.94;94.20
56737;BME280;42618;51.226;4.910;2023-05-09T00:03:12;49719.03;;;-146.94;94.01
56737;BME280;42618;51.226;4.910;2023-05-09T00:05:40;49703.09;;;-146.94;94.42
56737;BME280;42618;51.226;4.910;2023-05-09T00:08:07;49715.03;;;-146.94;94.32
56737;BME280;42618;51.226;4.910;2023-05-09T00:10:34;49715.03;;;-146.94;94.59
56737;BME280;42618;51.226;4.910;2023-05-09T00:13:01;49685.13;;;-146.94;94.63
56737;BME280;42618;51.226;4.910;2023-05-09T00:15:27;49713.06;;;-146.94;94.69
56737;BME280;42618;51.226;4.910;2023-05-09T00:17:54;49731.00;;;-146.94;94.79
56737;BME280;42618;51.226;4.910;2023-05-09T00:20:21;49685.13;;;-146.94;94.59
56737;BME280;42618;51.226;4.910;2023-05-09T00:22:48;49731.00;;;-146.94;94.29
56737;BME280;42618;51.226;4.910;2023-05-09T00:25:15;49727.00;;;-146.94;94.47
56737;BME280;42618;51.226;4.910;2023-05-09T00:27:42;49750.94;;;-146.94;94.59
56737;BME280;42618;51.226;4.910;2023-05-09T00:30:09;49691.13;;;-146.94;94.75
56737;BME280;42618;51.226;4.910;2023-05-09T00:32:36;49675.19;;;-146.94;95.13
56737;BME280;42618;51.226;4.910;2023-05-09T00:35:03;49683.16;;;-146.94;95.26
56737;BME280;42618;51.226;4.910;2023-05-09T00:37:30;49715.03;;;-146.94;95.26
56737;BME280;42618;51.226;4.910;2023-05-09T00:39:57;49725.00;;;-146.94;95.32
56737;BME280;42618;51.226;4.910;2023-05-09T00:42:24;49707.06;;;-146.94;95.31
56737;BME280;42618;51.226;4.910;2023-05-09T00:44:51;49746.94;;;-146.94;95.21
56737;BME280;42618;51.226;4.910;2023-05-09T00:47:19;49715.03;;;-146.94;95.12
56737;BME280;42618;51.226;4.910;2023-05-09T00:49:46;49691.13;;;-146.94;95.23
56737;BME280;42618;51.226;4.910;2023-05-09T00:52:12;49727.00;;;-146.94;95.14
56737;BME280;42618;51.226;4.910;2023-05-09T00:54:39;49715.03;;;-146.94;95.33
56737;BME280;42618;51.226;4.910;2023-05-09T00:57:06;49723.03;;;-146.94;95.52
56737;BME280;42618;51.226;4.910;2023-05-09T00:59:33;49707.06;;;-146.94;95.67
56737;BME280;42618;51.226;4.910;2023-05-09T01:02:00;49691.13;;;-146.94;95.77
56737;BME280;42618;51.226;4.910;2023-05-09T01:04:27;49695.09;;;-146.94;95.69
56737;BME280;42618;51.226;4.910;2023-05-09T01:07:06;49727.00;;;-146.94;95.89
56737;BME280;42618;51.226;4.910;2023-05-09T01:10:00;49736.97;;;-146.94;96.34
56737;BME280;42618;51.226;4.910;2023-05-09T01:12:47;49742.94;;;-146.94;96.01
56737;BME280;42618;51.226;4.910;2023-05-09T01:15:33;49725.00;;;-146.94;96.21
56737;BME280;42618;51.226;4.910;2023-05-09T01:20:52;49711.06;;;-146.94;96.50
56737;BME280;42618;51.226;4.910;2023-05-09T01:27:27;49748.94;;;-146.94;97.27
56737;BME280;42618;51.226;4.910;2023-05-09T01:30:02;49691.13;;;-146.94;97.08
56737;BME280;42618;51.226;4.910;2023-05-09T01:32:31;49711.06;;;-146.94;96.98
56737;BME280;42618;51.226;4.910;2023-05-09T01:35:02;49731.00;;;-146.94;96.83
56737;BME280;42618;51.226;4.910;2023-05-09T01:37:32;49711.06;;;-146.94;96.64
56737;BME280;42618;51.226;4.910;2023-05-09T01:40:05;49685.13;;;-146.94;96.27
56737;BME280;42618;51.226;4.910;2023-05-09T01:42:38;49725.00;;;-146.94;96.81
56737;BME280;42618;51.226;4.910;2023-05-09T01:45:08;49758.91;;;-146.94;96.69
56737;BME280;42618;51.226;4.910;2023-05-09T01:47:36;49729.00;;;-146.94;96.01
56737;BME280;42618;51.226;4.910;2023-05-09T01:50:05;49703.09;;;-146.94;96.40
56737;BME280;42618;51.226;4.910;2023-05-09T01:52:33;49695.09;;;-146.94;96.22
56737;BME280;42618;51.226;4.910;2023-05-09T01:55:02;49711.06;;;-146.94;96.23
56737;BME280;42618;51.226;4.910;2023-05-09T01:57:31;49746.94;;;-146.94;96.18
56737;BME280;42618;51.226;4.910;2023-05-09T02:00:01;49717.03;;;-146.94;96.42
56737;BME280;42618;51.226;4.910;2023-05-09T02:02:38;49715.03;;;-146.94;96.64
56737;BME280;42618;51.226;4.910;2023-05-09T02:05:07;49738.97;;;-146.94;96.69
56737;BME280;42618;51.226;4.910;2023-05-09T02:07:35;49703.09;;;-146.94;96.49
56737;BME280;42618;51.226;4.910;2023-05-09T02:10:05;49717.03;;;-146.94;96.65
56737;BME280;42618;51.226;4.910;2023-05-09T02:12:35;49709.06;;;-146.94;96.23
56737;BME280;42618;51.226;4.910;2023-05-09T02:15:04;49727.00;;;-146.94;96.43
56737;BME280;42618;51.226;4.910;2023-05-09T02:17:31;49711.06;;;-146.94;96.29
56737;BME280;42618;51.226;4.910;2023-05-09T02:19:57;49742.94;;;-146.94;96.00
56737;BME280;42618;51.226;4.910;2023-05-09T02:22:24;49721.03;;;-146.94;96.26
56737;BME280;42618;51.226;4.910;2023-05-09T02:24:51;49731.00;;;-146.94;95.63
56737;BME280;42618;51.226;4.910;2023-05-09T02:27:18;49727.00;;;-146.94;95.52
56737;BME280;42618;51.226;4.910;2023-05-09T02:29:48;49717.03;;;-146.94;95.66
56737;BME280;42618;51.226;4.910;2023-05-09T02:32:21;49734.97;;;-146.94;95.79
56737;BME280;42618;51.226;4.910;2023-05-09T02:34:51;49736.97;;;-146.94;95.64
56737;BME280;42618;51.226;4.910;2023-05-09T02:37:18;49746.94;;;-146.94;95.77
56737;BME280;42618;51.226;4.910;2023-05-09T02:39:46;49758.91;;;-146.94;96.09
56737;BME280;42618;51.226;4.910;2023-05-09T02:42:18;49725.00;;;-146.94;96.31
56737;BME280;42618;51.226;4.910;2023-05-09T02:44:46;49711.06;;;-146.94;96.57
56737;BME280;42618;51.226;4.910;2023-05-09T02:47:14;49687.13;;;-146.94;96.37
56737;BME280;42618;51.226;4.910;2023-05-09T02:49:41;49707.06;;;-146.94;96.26
56737;BME280;42618;51.226;4.910;2023-05-09T02:52:08;49719.03;;;-146.94;95.94
56737;BME280;42618;51.226;4.910;2023-05-09T02:54:34;49719.03;;;-146.94;96.09
56737;BME280;42618;51.226;4.910;2023-05-09T02:57:01;49695.09;;;-146.94;96.08
56737;BME280;42618;51.226;4.910;2023-05-09T02:59:29;49731.00;;;-146.94;96.06
56737;BME280;42618;51.226;4.910;2023-05-09T03:01:59;49756.91;;;-146.94;96.38
56737;BME280;42618;51.226;4.910;2023-05-09T03:04:28;49715.03;;;-146.94;96.22
56737;BME280;42618;51.226;4.910;2023-05-09T03:06:55;49731.00;;;-146.94;96.13
56737;BME280;42618;51.226;4.910;2023-05-09T03:09:25;49734.97;;;-146.94;96.06
56737;BME280;42618;51.226;4.910;2023-05-09T03:11:52;49736.97;;;-146.94;96.30
56737;BME280;42618;51.226;4.910;2023-05-09T03:14:19;49744.94;;;-146.94;96.33
56737;BME280;42618;51.226;4.910;2023-05-09T03:16:45;49736.97;;;-146.94;96.51
56737;BME280;42618;51.226;4.910;2023-05-09T03:19:20;49721.03;;;-146.94;96.70
56737;BME280;42618;51.226;4.910;2023-05-09T03:21:47;49734.97;;;-146.94;96.81
56737;BME280;42618;51.226;4.910;2023-05-09T03:24:14;49713.06;;;-146.94;96.85
56737;BME280;42618;51.226;4.910;2023-05-09T03:26:41;49752.91;;;-146.94;97.08
56737;BME280;42618;51.226;4.910;2023-05-09T03:29:08;49703.09;;;-146.94;97.18
56737;BME280;42618;51.226;4.910;2023-05-09T03:31:37;49762.88;;;-146.94;97.24
56737;BME280;42618;51.226;4.910;2023-05-09T03:34:03;49746.94;;;-146.94;97.09
56737;BME280;42618;51.226;4.910;2023-05-09T03:36:30;49750.94;;;-146.94;97.08
56737;BME280;42618;51.226;4.910;2023-05-09T03:38:58;49731.00;;;-146.94;97.11
56737;BME280;42618;51.226;4.910;2023-05-09T03:41:25;49746.94;;;-146.94;96.96
56737;BME280;42618;51.226;4.910;2023-05-09T03:43:52;49685.13;;;-146.94;97.18
56737;BME280;42618;51.226;4.910;2023-05-09T03:46:18;49738.97;;;-146.94;97.47
56737;BME280;42618;51.226;4.910;2023-05-09T03:48:47;49750.94;;;-146.94;97.43
56737;BME280;42618;51.226;4.910;2023-05-09T03:51:14;49727.00;;;-146.94;96.88
56737;BME280;42618;51.226;4.910;2023-05-09T03:53:44;49689.13;;;-146.94;97.14
56737;BME280;42618;51.226;4.910;2023-05-09T03:56:13;49736.97;;;-146.94;97.01
56737;BME280;42618;51.226;4.910;2023-05-09T03:58:45;49738.97;;;-146.94;97.14
56737;BME280;42618;51.226;4.910;2023-05-09T04:01:13;49766.88;;;-146.94;97.46
56737;BME280;42618;51.226;4.910;2023-05-09T04:03:40;49725.00;;;-146.94;97.33
56737;BME280;42618;51.226;4.910;2023-05-09T04:06:09;49746.94;;;-146.94;97.63
56737;BME280;42618;51.226;4.910;2023-05-09T04:08:40;49740.97;;;-146.94;97.37
56737;BME280;42618;51.226;4.910;2023-05-09T04:11:07;49742.94;;;-146.94;97.60
56737;BME280;42618;51.226;4.910;2023-05-09T04:13:36;49738.97;;;-146.94;97.31
56737;BME280;42618;51.226;4.910;2023-05-09T04:16:11;49734.97;;;-146.94;97.65
56737;BME280;42618;51.226;4.910;2023-05-09T04:18:38;49695.09;;;-146.94;97.93
56737;BME280;42618;51.226;4.910;2023-05-09T04:21:07;49719.03;;;-146.94;97.95
56737;BME280;42618;51.226;4.910;2023-05-09T04:23:36;49772.84;;;-146.94;97.37
56737;BME280;42618;51.226;4.910;2023-05-09T04:26:04;49766.88;;;-146.94;97.68
56737;BME280;42618;51.226;4.910;2023-05-09T04:28:32;49738.97;;;-146.94;97.68
56737;BME280;42618;51.226;4.910;2023-05-09T04:30:59;49711.06;;;-146.94;97.68
56737;BME280;42618;51.226;4.910;2023-05-09T04:33:26;49725.00;;;-146.94;97.38
56737;BME280;42618;51.226;4.910;2023-05-09T04:35:58;49731.00;;;-146.94;97.07
56737;BME280;42618;51.226;4.910;2023-05-09T04:38:25;49742.94;;;-146.94;97.18
56737;BME280;42618;51.226;4.910;2023-05-09T04:40:53;49721.03;;;-146.94;97.21
56737;BME280;42618;51.226;4.910;2023-05-09T04:43:19;49754.91;;;-146.94;97.17
56737;BME280;42618;51.226;4.910;2023-05-09T04:45:46;49772.84;;;-146.94;97.05
56737;BME280;42618;51.226;4.910;2023-05-09T04:48:14;49715.03;;;-146.94;97.43
56737;BME280;42618;51.226;4.910;2023-05-09T04:50:40;49738.97;;;-146.94;97.10
56737;BME280;42618;51.226;4.910;2023-05-09T04:53:07;49736.97;;;-146.94;96.90
56737;BME280;42618;51.226;4.910;2023-05-09T04:55:34;49738.97;;;-146.94;97.01
56737;BME280;42618;51.226;4.910;2023-05-09T04:58:01;49695.09;;;-146.94;97.08
56737;BME280;42618;51.226;4.910;2023-05-09T05:00:28;49719.03;;;-146.94;96.75
56737;BME280;42618;51.226;4.910;2023-05-09T05:02:55;49711.06;;;-146.94;96.37
56737;BME280;42618;51.226;4.910;2023-05-09T05:05:24;49711.06;;;-146.94;96.51
56737;BME280;42618;51.226;4.910;2023-05-09T05:07:53;49709.06;;;-146.94;96.24
56737;BME280;42618;51.226;4.910;2023-05-09T05:10:23;49748.94;;;-146.94;95.82
56737;BME280;42618;51.226;4.910;2023-05-09T05:12:59;49734.97;;;-146.94;95.83
56737;BME280;42618;51.226;4.910;2023-05-09T05:15:26;49738.97;;;-146.94;96.33
56737;BME280;42618;51.226;4.910;2023-05-09T05:17:53;49746.94;;;-146.94;96.73
56737;BME280;42618;51.226;4.910;2023-05-09T05:20:26;49707.06;;;-146.94;96.63
56737;BME280;42618;51.226;4.910;2023-05-09T05:22:54;49738.97;;;-146.94;96.85
56737;BME280;42618;51.226;4.910;2023-05-09T05:25:21;49754.91;;;-146.94;96.82
56737;BME280;42618;51.226;4.910;2023-05-09T05:27:50;49738.97;;;-146.94;97.66
56737;BME280;42618;51.226;4.910;2023-05-09T05:30:17;49719.03;;;-146.94;97.28
56737;BME280;42618;51.226;4.910;2023-05-09T05:32:44;49734.97;;;-146.94;97.61
56737;BME280;42618;51.226;4.910;2023-05-09T05:35:14;49774.84;;;-146.94;97.63
56737;BME280;42618;51.226;4.910;2023-05-09T05:37:41;49697.09;;;-146.94;97.77
56737;BME280;42618;51.226;4.910;2023-05-09T05:40:10;49731.00;;;-146.94;98.38
56737;BME280;42618;51.226;4.910;2023-05-09T05:42:40;49725.00;;;-146.94;98.72
56737;BME280;42618;51.226;4.910;2023-05-09T05:45:07;49750.94;;;-146.94;98.95
56737;BME280;42618;51.226;4.910;2023-05-09T05:47:37;49729.00;;;-146.94;99.64
56737;BME280;42618;51.226;4.910;2023-05-09T05:50:05;49740.97;;;-146.94;99.89
56737;BME280;42618;51.226;4.910;2023-05-09T05:52:35;49746.94;;;-146.94;100.00
56737;BME280;42618;51.226;4.910;2023-05-09T05:55:03;49715.03;;;-146.94;100.00
56737;BME280;42618;51.226;4.910;2023-05-09T05:57:30;49717.03;;;-146.94;100.00
56737;BME280;42618;51.226;4.910;2023-05-09T05:59:57;49734.97;;;-146.94;100.00
56737;BME280;42618;51.226;4.910;2023-05-09T06:02:24;49731.00;;;-146.94;100.00
56737;BME280;42618;51.226;4.910;2023-05-09T06:04:51;49738.97;;;-146.94;100.00
56737;BME280;42618;51.226;4.910;2023-05-09T06:07:20;49727.00;;;-146.94;100.00
56737;BME280;42618;51.226;4.910;2023-05-09T06:09:47;49746.94;;;-146.94;100.00
56737;BME280;42618;51.226;4.910;2023-05-09T06:12:14;49721.03;;;-146.94;100.00
56737;BME280;42618;51.226;4.910;2023-05-09T06:14:42;49740.97;;;-146.94;100.00
56737;BME280;42618;51.226;4.910;2023-05-09T06:17:09;49738.97;;;-146.94;100.00
56737;BME280;42618;51.226;4.910;2023-05-09T06:19:36;49734.97;;;-146.94;100.00
56737;BME280;42618;51.226;4.910;2023-05-09T06:22:03;49768.88;;;-146.94;100.00
56737;BME280;42618;51.226;4.910;2023-05-09T06:24:30;49740.97;;;-146.94;100.00
56737;BME280;42618;51.226;4.910;2023-05-09T06:27:02;49701.09;;;-146.94;100.00
56737;BME280;42618;51.226;4.910;2023-05-09T06:29:29;49721.03;;;-146.94;100.00
56737;BME280;42618;51.226;4.910;2023-05-09T06:31:56;49742.94;;;-146.94;100.00
56737;BME280;42618;51.226;4.910;2023-05-09T06:34:23;49733.00;;;-146.94;100.00
56737;BME280;42618;51.226;4.910;2023-05-09T06:36:49;49760.91;;;-146.94;100.00
56737;BME280;42618;51.226;4.910;2023-05-09T06:39:16;49736.97;;;-146.94;100.00
56737;BME280;42618;51.226;4.910;2023-05-09T06:41:43;49713.06;;;-146.94;100.00
56737;BME280;42618;51.226;4.910;2023-05-09T06:44:09;49679.16;;;-146.94;100.00
56737;BME280;42618;51.226;4.910;2023-05-09T06:46:36;49707.06;;;-146.94;100.00
56737;BME280;42618;51.226;4.910;2023-05-09T06:49:03;49762.88;;;-146.94;100.00
56737;BME280;42618;51.226;4.910;2023-05-09T06:51:31;49731.00;;;-146.94;100.00
56737;BME280;42618;51.226;4.910;2023-05-09T06:53:58;49748.94;;;-146.94;100.00
56737;BME280;42618;51.226;4.910;2023-05-09T06:56:24;49723.03;;;-146.94;100.00
56737;BME280;42618;51.226;4.910;2023-05-09T06:58:52;49742.94;;;-146.94;100.00
56737;BME280;42618;51.226;4.910;2023-05-09T07:01:19;49734.97;;;-146.94;100.00
56737;BME280;42618;51.226;4.910;2023-05-09T07:03:46;49727.00;;;-146.94;100.00
56737;BME280;42618;51.226;4.910;2023-05-09T07:06:13;49729.00;;;-146.94;100.00
56737;BME280;42618;51.226;4.910;2023-05-09T07:08:40;49713.06;;;-146.94;100.00
56737;BME280;42618;51.226;4.910;2023-05-09T07:11:06;49766.88;;;-146.94;100.00
56737;BME280;42618;51.226;4.910;2023-05-09T07:13:33;49736.97;;;-146.94;100.00
56737;BME280;42618;51.226;4.910;2023-05-09T07:16:00;49746.94;;;-146.94;100.00
56737;BME280;42618;51.226;4.910;2023-05-09T07:18:26;49754.91;;;-146.94;100.00
56737;BME280;42618;51.226;4.910;2023-05-09T07:20:53;49715.03;;;-146.94;100.00
56737;BME280;42618;51.226;4.910;2023-05-09T07:23:20;49762.88;;;-146.94;100.00
56737;BME280;42618;51.226;4.910;2023-05-09T07:25:47;49734.97;;;-146.94;100.00
56737;BME280;42618;51.226;4.910;2023-05-09T07:28:13;49734.97;;;-146.94;100.00
56737;BME280;42618;51.226;4.910;2023-05-09T07:30:40;49744.94;;;-146.94;100.00
56737;BME280;42618;51.226;4.910;2023-05-09T07:33:09;49742.94;;;-146.94;100.00
56737;BME280;42618;51.226;4.910;2023-05-09T07:35:35;49768.88;;;-146.94;100.00
56737;BME280;42618;51.226;4.910;2023-05-09T07:38:02;49733.00;;;-146.94;100.00
56737;BME280;42618;51.226;4.910;2023-05-09T07:40:31;49723.03;;;-146.94;100.00
56737;BME280;42618;51.226;4.910;2023-05-09T07:43:02;49734.97;;;-146.94;100.00
56737;BME280;42618;51.226;4.910;2023-05-09T07:45:29;49705.06;;;-146.94;100.00
56737;BME280;42618;51.226;4.910;2023-05-09T07:47:56;49705.06;;;-146.94;100.00
56737;BME280;42618;51.226;4.910;2023-05-09T07:50:22;49754.91;;;-146.94;100.00
56737;BME280;42618;51.226;4.910;2023-05-09T07:52:49;49734.97;;;-146.94;100.00
56737;BME280;42618;51.226;4.910;2023-05-09T07:55:17;49701.09;;;-146.94;100.00
56737;BME280;42618;51.226;4.910;2023-05-09T07:57:44;49723.03;;;-146.94;100.00
56737;BME280;42618;51.226;4.910;2023-05-09T08:00:11;49699.09;;;-146.94;100.00
56737;BME280;42618;51.226;4.910;2023-05-09T08:02:40;49758.91;;;-146.94;100.00
56737;BME280;42618;51.226;4.910;2023-05-09T08:05:08;49729.00;;;-146.94;100.00
56737;BME280;42618;51.226;4.910;2023-05-09T08:07:37;49721.03;;;-146.94;100.00
56737;BME280;42618;51.226;4.910;2023-05-09T08:10:04;49740.97;;;-146.94;100.00
56737;BME280;42618;51.226;4.910;2023-05-09T08:12:30;49721.03;;;-146.94;100.00
56737;BME280;42618;51.226;4.910;2023-05-09T08:14:57;49766.88;;;-146.94;100.00
56737;BME280;42618;51.226;4.910;2023-05-09T08:17:24;49719.03;;;-146.94;100.00
56737;BME280;42618;51.226;4.910;2023-05-09T08:19:51;49734.97;;;-146.94;100.00
56737;BME280;42618;51.226;4.910;2023-05-09T08:22:18;49742.94;;;-146.94;100.00
56737;BME280;42618;51.226;4.910;2023-05-09T08:24:45;49738.97;;;-146.94;100.00
56737;BME280;42618;51.226;4.910;2023-05-09T08:27:13;49723.03;;;-146.94;100.00
56737;BME280;42618;51.226;4.910;2023-05-09T08:29:41;49725.00;;;-146.94;100.00
56737;BME280;42618;51.226;4.910;2023-05-09T08:32:08;49723.03;;;-146.94;100.00
56737;BME280;42618;51.226;4.910;2023-05-09T08:34:35;49738.97;;;-146.94;100.00
56737;BME280;42618;51.226;4.910;2023-05-09T08:37:03;49742.94;;;-146.94;100.00
56737;BME280;42618;51.226;4.910;2023-05-09T08:39:30;49723.03;;;-146.94;100.00
56737;BME280;42618;51.226;4.910;2023-05-09T08:41:57;49731.00;;;-146.94;100.00
56737;BME280;42618;51.226;4.910;2023-05-09T08:44:26;49734.97;;;-146.94;100.00
56737;BME280;42618;51.226;4.910;2023-05-09T08:47:01;49709.06;;;-146.94;100.00
56737;BME280;42618;51.226;4.910;2023-05-09T08:49:28;49750.94;;;-146.94;100.00
56737;BME280;42618;51.226;4.910;2023-05-09T08:51:56;49711.06;;;-146.94;100.00
56737;BME280;42618;51.226;4.910;2023-05-09T08:54:23;49725.00;;;-146.94;100.00
56737;BME280;42618;51.226;4.910;2023-05-09T08:56:50;49719.03;;;-146.94;100.00
56737;BME280;42618;51.226;4.910;2023-05-09T08:59:17;49736.97;;;-146.94;100.00
56737;BME280;42618;51.226;4.910;2023-05-09T09:01:45;49758.91;;;-146.94;100.00
56737;BME280;42618;51.226;4.910;2023-05-09T09:04:11;49727.00;;;-146.94;100.00
56737;BME280;42618;51.226;4.910;2023-05-09T09:06:39;49733.00;;;-146.94;100.00
56737;BME280;42618;51.226;4.910;2023-05-09T09:09:07;49687.13;;;-146.94;100.00
56737;BME280;42618;51.226;4.910;2023-05-09T09:11:36;49721.03;;;-146.94;100.00
56737;BME280;42618;51.226;4.910;2023-05-09T09:14:22;49738.97;;;-146.94;100.00
56737;BME280;42618;51.226;4.910;2023-05-09T09:16:50;49725.00;;;-146.94;100.00
56737;BME280;42618;51.226;4.910;2023-05-09T09:19:19;49701.09;;;-146.94;100.00
56737;BME280;42618;51.226;4.910;2023-05-09T09:21:48;49727.00;;;-146.94;100.00
56737;BME280;42618;51.226;4.910;2023-05-09T09:24:21;49758.91;;;-146.94;100.00
56737;BME280;42618;51.226;4.910;2023-05-09T09:26:49;49736.97;;;-146.94;100.00
56737;BME280;42618;51.226;4.910;2023-05-09T09:29:18;49750.94;;;-146.94;100.00
56737;BME280;42618;51.226;4.910;2023-05-09T09:31:47;49707.06;;;-146.94;100.00
56737;BME280;42618;51.226;4.910;2023-05-09T09:34:22;49697.09;;;-146.94;100.00
56737;BME280;42618;51.226;4.910;2023-05-09T09:36:49;49729.00;;;-146.94;100.00
56737;BME280;42618;51.226;4.910;2023-05-09T09:39:16;49725.00;;;-146.94;100.00
56737;BME280;42618;51.226;4.910;2023-05-09T09:41:42;49711.06;;;-146.94;100.00
56737;BME280;42618;51.226;4.910;2023-05-09T09:44:21;49738.97;;;-146.94;100.00
56737;BME280;42618;51.226;4.910;2023-05-09T09:49:18;49750.94;;;-146.94;100.00
56737;BME280;42618;51.226;4.910;2023-05-09T09:51:53;49734.97;;;-146.94;100.00
56737;BME280;42618;51.226;4.910;2023-05-09T09:54:20;49746.94;;;-146.94;100.00
56737;BME280;42618;51.226;4.910;2023-05-09T09:56:48;49764.88;;;-146.94;100.00
56737;BME280;42618;51.226;4.910;2023-05-09T09:59:17;49703.09;;;-146.94;100.00
56737;BME280;42618;51.226;4.910;2023-05-09T10:02:00;49687.13;;;-146.94;100.00
56737;BME280;42618;51.226;4.910;2023-05-09T10:04:33;49744.94;;;-146.94;100.00
56737;BME280;42618;51.226;4.910;2023-05-09T10:07:02;49711.06;;;-146.94;100.00
56737;BME280;42618;51.226;4.910;2023-05-09T10:09:30;49715.03;;;-146.94;100.00
56737;BME280;42618;51.226;4.910;2023-05-09T10:12:04;49717.03;;;-146.94;100.00
56737;BME280;42618;51.226;4.910;2023-05-09T10:14:33;49742.94;;;-146.94;100.00
56737;BME280;42618;51.226;4.910;2023-05-09T10:17:02;49774.84;;;-146.94;100.00
56737;BME280;42618;51.226;4.910;2023-05-09T10:19:30;49715.03;;;-146.94;100.00
56737;BME280;42618;51.226;4.910;2023-05-09T10:22:05;49713.06;;;-146.94;100.00
56737;BME280;42618;51.226;4.910;2023-05-09T10:24:38;49734.97;;;-146.94;100.00
56737;BME280;42618;51.226;4.910;2023-05-09T10:27:10;49723.03;;;-146.94;100.00
56737;BME280;42618;51.226;4.910;2023-05-09T10:29:44;49709.06;;;-146.94;100.00
56737;BME280;42618;51.226;4.910;2023-05-09T10:32:23;49727.00;;;-146.94;100.00
56737;BME280;42618;51.226;4.910;2023-05-09T10:34:58;49734.97;;;-146.94;100.00
56737;BME280;42618;51.226;4.910;2023-05-09T10:37:27;49711.06;;;-146.94;100.00
56737;BME280;42618;51.226;4.910;2023-05-09T10:39:59;49707.06;;;-146.94;100.00
56737;BME280;42618;51.226;4.910;2023-05-09T10:42:28;49738.97;;;-146.94;100.00
56737;BME280;42618;51.226;4.910;2023-05-09T10:44:55;49754.91;;;-146.94;100.00
56737;BME280;42618;51.226;4.910;2023-05-09T10:47:25;49746.94;;;-146.94;100.00
56737;BME280;42618;51.226;4.910;2023-05-09T10:49:53;49711.06;;;-146.94;100.00
56737;BME280;42618;51.226;4.910;2023-05-09T10:52:21;49738.97;;;-146.94;100.00
56737;BME280;42618;51.226;4.910;2023-05-09T10:54:58;49758.91;;;-146.94;100.00
56737;BME280;42618;51.226;4.910;2023-05-09T10:57:30;49762.88;;;-146.94;100.00
56737;BME280;42618;51.226;4.910;2023-05-09T10:59:58;49729.00;;;-146.94;100.00
56737;BME280;42618;51.226;4.910;2023-05-09T11:02:25;49742.94;;;-146.94;100.00
56737;BME280;42618;51.226;4.910;2023-05-09T11:05:15;49731.00;;;-146.94;100.00
56737;BME280;42618;51.226;4.910;2023-05-09T11:07:42;49731.00;;;-146.94;100.00
56737;BME280;42618;51.226;4.910;2023-05-09T11:10:14;49752.91;;;-146.94;100.00
56737;BME280;42618;51.226;4.910;2023-05-09T11:12:57;49762.88;;;-146.94;100.00
56737;BME280;42618;51.226;4.910;2023-05-09T11:15:24;49758.91;;;-146.94;100.00
56737;BME280;42618;51.226;4.910;2023-05-09T11:18:06;49711.06;;;-146.94;100.00
56737;BME280;42618;51.226;4.910;2023-05-09T11:20:34;49721.03;;;-146.94;100.00
56737;BME280;42618;51.226;4.910;2023-05-09T11:23:05;49711.06;;;-146.94;100.00
56737;BME280;42618;51.226;4.910;2023-05-09T11:25:32;49723.03;;;-146.94;100.00
56737;BME280;42618;51.226;4.910;2023-05-09T11:28:00;49750.94;;;-146.94;100.00
56737;BME280;42618;51.226;4.910;2023-05-09T11:30:40;49768.88;;;-146.94;100.00
56737;BME280;42618;51.226;4.910;2023-05-09T11:33:26;49744.94;;;-146.94;100.00
56737;BME280;42618;51.226;4.910;2023-05-09T11:36:16;49734.97;;;-146.94;100.00
56737;BME280;42618;51.226;4.910;2023-05-09T11:38:46;49774.84;;;-146.94;100.00
56737;BME280;42618;51.226;4.910;2023-05-09T11:41:14;49770.88;;;-146.94;100.00
56737;BME280;42618;51.226;4.910;2023-05-09T11:43:42;49713.06;;;-146.94;100.00
56737;BME280;42618;51.226;4.910;2023-05-09T11:46:10;49746.94;;;-146.94;100.00
56737;BME280;42618;51.226;4.910;2023-05-09T11:48:39;49768.88;;;-146.94;100.00
56737;BME280;42618;51.226;4.910;2023-05-09T11:51:15;49683.16;;;-146.94;100.00
56737;BME280;42618;51.226;4.910;2023-05-09T11:53:43;49697.09;;;-146.94;100.00
56737;BME280;42618;51.226;4.910;2023-05-09T11:56:12;49752.91;;;-146.94;100.00
56737;BME280;42618;51.226;4.910;2023-05-09T11:58:39;49774.84;;;-146.94;100.00
56737;BME280;42618;51.226;4.910;2023-05-09T12:01:07;49756.91;;;-146.94;100.00
56737;BME280;42618;51.226;4.910;2023-05-09T12:03:43;49766.88;;;-146.94;100.00
56737;BME280;42618;51.226;4.910;2023-05-09T12:06:18;49742.94;;;-146.94;100.00
56737;BME280;42618;51.226;4.910;2023-05-09T12:08:45;49746.94;;;-146.94;100.00
56737;BME280;42618;51.226;4.910;2023-05-09T12:11:13;49772.84;;;-146.94;100.00
56737;BME280;42618;51.226;4.910;2023-05-09T12:13:48;49750.94;;;-146.94;100.00
56737;BME280;42618;51.226;4.910;2023-05-09T12:16:16;49727.00;;;-146.94;100.00
56737;BME280;42618;51.226;4.910;2023-05-09T12:18:48;49707.06;;;-146.94;100.00
56737;BME280;42618;51.226;4.910;2023-05-09T12:21:19;49709.06;;;-146.94;100.00
56737;BME280;42618;51.226;4.910;2023-05-09T12:23:47;49746.94;;;-146.94;100.00
56737;BME280;42618;51.226;4.910;2023-05-09T12:26:17;49731.00;;;-146.94;100.00
56737;BME280;42618;51.226;4.910;2023-05-09T12:28:44;49752.91;;;-146.94;100.00
56737;BME280;42618;51.226;4.910;2023-05-09T12:31:12;49719.03;;;-146.94;100.00
56737;BME280;42618;51.226;4.910;2023-05-09T12:33:39;49748.94;;;-146.94;100.00
56737;BME280;42618;51.226;4.910;2023-05-09T12:36:08;49742.94;;;-146.94;100.00
56737;BME280;42618;51.226;4.910;2023-05-09T12:38:38;49754.91;;;-146.94;100.00
56737;BME280;42618;51.226;4.910;2023-05-09T12:41:06;49742.94;;;-146.94;100.00
56737;BME280;42618;51.226;4.910;2023-05-09T12:43:48;49721.03;;;-146.94;100.00
56737;BME280;42618;51.226;4.910;2023-05-09T12:46:18;49742.94;;;-146.94;100.00
56737;BME280;42618;51.226;4.910;2023-05-09T12:48:46;49766.88;;;-146.94;100.00
56737;BME280;42618;51.226;4.910;2023-05-09T12:51:20;49731.00;;;-146.94;100.00
56737;BME280;42618;51.226;4.910;2023-05-09T12:53:47;49772.84;;;-146.94;100.00